createdAt,value
2018-08-25T00:02:01.280Z,16.30
2018-08-25T00:04:29.528Z,16.30
2018-08-25T00:06:57.763Z,16.30
2018-08-25T00:09:26.008Z,16.20
2018-08-25T00:11:54.252Z,16.20
2018-08-25T00:14:22.498Z,16.10
2018-08-25T00:16:50.750Z,16.10
2018-08-25T00:19:19.002Z,16.10
2018-08-25T00:21:47.252Z,16.10
2018-08-25T00:24:15.492Z,16.00
2018-08-25T00:26:43.722Z,16.00
2018-08-25T00:29:11.960Z,16.10
2018-08-25T00:31:40.195Z,16.00
2018-08-25T00:34:08.431Z,16.00
2018-08-25T00:36:36.666Z,16.00
2018-08-25T00:39:07.491Z,16.00
2018-08-25T00:41:36.289Z,15.90
2018-08-25T00:44:04.525Z,15.90
2018-08-25T00:46:32.776Z,15.90
2018-08-25T00:49:01.007Z,15.90
2018-08-25T00:51:29.251Z,15.90
2018-08-25T00:53:57.511Z,15.80
2018-08-25T00:56:25.763Z,15.80
2018-08-25T00:58:54.044Z,15.80
2018-08-25T01:01:22.405Z,15.80
2018-08-25T01:03:52.553Z,15.70
2018-08-25T01:06:20.835Z,15.70
2018-08-25T01:08:49.089Z,15.70
2018-08-25T01:11:17.345Z,15.60
2018-08-25T01:13:45.599Z,15.60
2018-08-25T01:16:13.861Z,15.60
2018-08-25T01:18:42.148Z,15.60
2018-08-25T01:21:10.425Z,15.60
2018-08-25T01:23:38.806Z,15.60
2018-08-25T01:26:07.979Z,15.50
2018-08-25T01:28:36.247Z,15.40
2018-08-25T01:31:04.506Z,15.30
2018-08-25T01:33:32.779Z,15.20
2018-08-25T01:36:01.026Z,15.10
2018-08-25T01:38:29.400Z,15.20
2018-08-25T01:40:58.212Z,15.20
2018-08-25T01:43:26.468Z,15.10
2018-08-25T01:45:54.730Z,15.00
2018-08-25T01:48:23.019Z,15.00
2018-08-25T01:50:51.290Z,14.80
2018-08-25T01:53:19.575Z,14.70
2018-08-25T01:55:47.847Z,14.70
2018-08-25T01:58:16.089Z,14.60
2018-08-25T02:00:44.350Z,14.40
2018-08-25T02:03:12.598Z,14.30
2018-08-25T02:05:40.866Z,14.20
2018-08-25T02:08:09.135Z,14.10
2018-08-25T02:10:37.386Z,14.00
2018-08-25T02:13:05.680Z,14.00
2018-08-25T02:15:33.936Z,14.00
2018-08-25T02:18:02.191Z,14.10
2018-08-25T02:20:30.451Z,14.00
2018-08-25T02:22:58.706Z,13.80
2018-08-25T02:25:26.953Z,13.70
2018-08-25T02:27:55.208Z,13.80
2018-08-25T02:30:23.465Z,13.60
2018-08-25T02:32:51.820Z,13.50
2018-08-25T02:35:20.072Z,13.60
2018-08-25T02:37:48.345Z,13.70
2018-08-25T02:40:16.625Z,13.80
2018-08-25T02:42:44.894Z,13.80
2018-08-25T02:45:13.146Z,13.80
2018-08-25T02:47:41.392Z,13.70
2018-08-25T02:50:09.644Z,13.70
2018-08-25T02:52:37.897Z,13.70
2018-08-25T02:55:06.334Z,13.50
2018-08-25T02:57:34.611Z,13.50
2018-08-25T03:00:02.863Z,13.40
2018-08-25T03:02:31.117Z,13.30
2018-08-25T03:04:59.454Z,13.20
2018-08-25T03:07:27.710Z,13.30
2018-08-25T03:09:55.955Z,13.40
2018-08-25T03:12:24.205Z,13.40
2018-08-25T03:14:52.455Z,13.40
2018-08-25T03:17:20.706Z,13.40
2018-08-25T03:19:48.960Z,13.50
2018-08-25T03:22:17.220Z,13.60
2018-08-25T03:24:45.482Z,13.40
2018-08-25T03:27:13.746Z,13.30
2018-08-25T03:29:42.014Z,13.20
2018-08-25T03:32:10.264Z,13.00
2018-08-25T03:34:38.615Z,12.90
2018-08-25T03:37:07.007Z,12.80
2018-08-25T03:39:35.274Z,12.80
2018-08-25T03:42:03.543Z,12.70
2018-08-25T03:44:31.809Z,12.70
2018-08-25T03:47:00.074Z,12.80
2018-08-25T03:49:28.327Z,12.80
2018-08-25T03:51:56.584Z,12.90
2018-08-25T03:54:24.843Z,12.90
2018-08-25T03:56:53.110Z,12.90
2018-08-25T03:59:21.370Z,12.90
2018-08-25T04:01:49.688Z,12.90
2018-08-25T04:04:17.974Z,12.90
2018-08-25T04:06:46.245Z,12.90
2018-08-25T04:09:15.084Z,13.10
2018-08-25T04:11:43.400Z,13.10
2018-08-25T04:14:12.574Z,13.20
2018-08-25T04:16:40.871Z,13.20
2018-08-25T04:19:21.829Z,13.30
2018-08-25T04:21:50.554Z,13.30
2018-08-25T04:24:19.027Z,13.30
2018-08-25T04:26:47.323Z,13.30
2018-08-25T04:29:15.594Z,13.30
2018-08-25T04:31:43.858Z,13.30
2018-08-25T04:34:12.182Z,13.30
2018-08-25T04:36:40.455Z,13.30
2018-08-25T04:39:10.215Z,13.20
2018-08-25T04:41:38.580Z,13.10
2018-08-25T04:44:07.093Z,13.20
2018-08-25T04:46:35.374Z,13.20
2018-08-25T04:49:03.646Z,13.30
2018-08-25T04:51:31.931Z,13.30
2018-08-25T04:54:00.242Z,13.40
2018-08-25T04:56:28.530Z,13.40
2018-08-25T04:58:56.806Z,13.50
2018-08-25T05:01:25.079Z,13.50
2018-08-25T05:03:53.356Z,13.60
2018-08-25T05:06:21.618Z,13.60
2018-08-25T05:08:49.923Z,13.70
2018-08-25T05:11:18.191Z,13.70
2018-08-25T05:13:46.459Z,13.80
2018-08-25T05:16:14.751Z,13.80
2018-08-25T05:18:43.023Z,13.90
2018-08-25T05:21:11.308Z,14.00
2018-08-25T05:23:39.572Z,14.10
2018-08-25T05:26:07.842Z,14.30
2018-08-25T05:28:36.159Z,14.40
2018-08-25T05:31:04.427Z,14.50
2018-08-25T05:33:32.693Z,14.60
2018-08-25T05:36:00.972Z,14.60
2018-08-25T05:38:29.262Z,14.60
2018-08-25T05:40:57.533Z,14.60
2018-08-25T05:43:25.810Z,14.70
2018-08-25T05:45:54.186Z,14.60
2018-08-25T05:48:22.457Z,14.50
2018-08-25T05:50:50.751Z,14.50
2018-08-25T05:53:19.022Z,14.40
2018-08-25T05:55:47.302Z,14.30
2018-08-25T05:58:15.582Z,14.30
2018-08-25T06:00:43.863Z,14.40
2018-08-25T06:03:12.392Z,14.40
2018-08-25T06:05:40.681Z,14.40
2018-08-25T06:08:09.097Z,14.40
2018-08-25T06:10:37.368Z,14.40
2018-08-25T06:13:05.663Z,14.50
2018-08-25T06:15:33.943Z,14.50
2018-08-25T06:18:02.249Z,14.50
2018-08-25T06:20:30.558Z,14.70
2018-08-25T06:22:58.997Z,14.80
2018-08-25T06:25:27.295Z,14.90
2018-08-25T06:27:55.558Z,14.90
2018-08-25T06:30:24.088Z,14.80
2018-08-25T06:32:52.481Z,14.70
2018-08-25T06:35:20.761Z,14.70
2018-08-25T06:37:49.023Z,14.60
2018-08-25T06:40:17.301Z,14.60
2018-08-25T06:42:45.598Z,14.60
2018-08-25T06:45:14.738Z,14.60
2018-08-25T06:47:43.496Z,14.70
2018-08-25T06:50:11.866Z,14.90
2018-08-25T06:52:40.311Z,15.20
2018-08-25T06:55:08.611Z,15.50
2018-08-25T06:57:38.075Z,15.70
2018-08-25T07:00:06.866Z,15.80
2018-08-25T07:02:35.195Z,16.10
2018-08-25T07:05:03.474Z,16.30
2018-08-25T07:07:31.845Z,16.40
2018-08-25T07:10:00.144Z,16.40
2018-08-25T07:12:28.441Z,16.80
2018-08-25T07:14:56.716Z,17.20
2018-08-25T07:17:25.382Z,17.80
2018-08-25T07:19:53.678Z,17.80
2018-08-25T07:22:22.130Z,17.80
2018-08-25T07:24:50.433Z,18.20
2018-08-25T07:27:18.704Z,18.50
2018-08-25T07:29:46.975Z,18.90
2018-08-25T07:32:16.464Z,19.00
2018-08-25T07:34:44.705Z,20.00
2018-08-25T07:37:13.651Z,20.90
2018-08-25T07:39:42.157Z,21.70
2018-08-25T07:42:10.447Z,22.10
2018-08-25T07:44:38.729Z,22.40
2018-08-25T07:47:07.639Z,23.20
2018-08-25T07:49:35.993Z,23.20
2018-08-25T07:52:04.279Z,22.90
2018-08-25T07:54:34.918Z,22.40
2018-08-25T07:57:03.291Z,22.10
2018-08-25T07:59:31.579Z,21.90
2018-08-25T08:02:00.039Z,21.70
2018-08-25T08:04:28.421Z,21.80
2018-08-25T08:06:56.777Z,21.10
2018-08-25T08:09:25.148Z,20.90
2018-08-25T08:11:53.696Z,21.30
2018-08-25T08:14:21.858Z,21.80
2018-08-25T08:16:50.223Z,22.00
2018-08-25T08:19:18.649Z,21.70
2018-08-25T08:21:47.506Z,21.60
2018-08-25T08:24:15.985Z,21.30
2018-08-25T08:26:44.446Z,20.70
2018-08-25T08:29:12.840Z,20.10
2018-08-25T08:31:41.484Z,19.60
2018-08-25T08:34:09.917Z,19.10
2018-08-25T08:36:38.416Z,18.60
2018-08-25T08:39:09.158Z,18.30
2018-08-25T08:41:38.171Z,18.20
2018-08-25T08:44:06.989Z,18.00
2018-08-25T08:46:36.676Z,18.00
2018-08-25T08:49:06.618Z,18.00
2018-08-25T08:51:36.224Z,18.00
2018-08-25T08:54:04.586Z,18.00
2018-08-25T08:56:33.077Z,18.00
2018-08-25T08:59:01.955Z,18.10
2018-08-25T09:01:30.589Z,17.90
2018-08-25T09:03:59.067Z,17.80
2018-08-25T09:06:27.767Z,17.70
2018-08-25T09:08:56.199Z,17.70
2018-08-25T09:11:24.950Z,17.60
2018-08-25T09:13:53.389Z,17.60
2018-08-25T09:16:22.186Z,17.30
2018-08-25T09:18:52.065Z,17.40
2018-08-25T09:21:20.877Z,17.40
2018-08-25T09:23:49.260Z,17.50
2018-08-25T09:26:17.864Z,17.40
2018-08-25T09:28:46.398Z,17.10
2018-08-25T09:31:14.952Z,16.90
2018-08-25T09:33:43.416Z,16.80
2018-08-25T09:36:12.528Z,16.70
2018-08-25T09:38:41.152Z,16.70
2018-08-25T09:41:09.673Z,16.60
2018-08-25T09:43:38.701Z,16.50
2018-08-25T09:46:07.331Z,16.40
2018-08-25T09:48:36.399Z,16.50
2018-08-25T09:51:05.431Z,16.60
2018-08-25T09:53:34.219Z,16.70
2018-08-25T09:56:02.574Z,16.70
2018-08-25T09:58:31.053Z,16.90
2018-08-25T10:01:09.848Z,16.80
2018-08-25T10:03:38.471Z,16.80
2018-08-25T10:06:07.046Z,16.50
2018-08-25T10:08:35.818Z,16.40
2018-08-25T10:11:05.071Z,16.40
2018-08-25T10:13:34.061Z,16.40
2018-08-25T10:16:02.486Z,16.40
2018-08-25T10:18:31.812Z,16.60
2018-08-25T10:21:00.387Z,16.80
2018-08-25T10:23:29.258Z,17.10
2018-08-25T10:25:57.879Z,17.20
2018-08-25T10:28:26.375Z,17.10
2018-08-25T10:30:54.870Z,17.00
2018-08-25T10:33:23.473Z,16.60
2018-08-25T10:36:05.784Z,16.40
2018-08-25T10:38:34.336Z,16.10
2018-08-25T10:41:02.961Z,16.20
2018-08-25T10:43:31.458Z,16.40
2018-08-25T10:45:59.784Z,16.50
2018-08-25T10:48:28.354Z,16.70
2018-08-25T10:50:56.834Z,16.70
2018-08-25T10:53:25.584Z,16.70
2018-08-25T10:55:54.038Z,16.30
2018-08-25T10:58:22.546Z,16.00
2018-08-25T11:00:51.178Z,15.80
2018-08-25T11:03:19.337Z,15.60
2018-08-25T11:05:47.871Z,15.50
2018-08-25T11:08:16.261Z,15.60
2018-08-25T11:10:44.615Z,15.80
2018-08-25T11:13:13.058Z,16.10
2018-08-25T11:15:43.269Z,16.20
2018-08-25T11:18:12.014Z,16.40
2018-08-25T11:20:40.701Z,16.40
2018-08-25T11:23:09.389Z,16.50
2018-08-25T11:25:37.814Z,16.40
2018-08-25T11:28:06.158Z,16.30
2018-08-25T11:30:34.826Z,16.30
2018-08-25T11:33:03.482Z,16.40
2018-08-25T11:35:32.039Z,16.50
2018-08-25T11:38:00.457Z,16.50
2018-08-25T11:40:28.961Z,16.50
2018-08-25T11:42:57.531Z,16.60
2018-08-25T11:45:25.968Z,16.70
2018-08-25T11:47:54.402Z,16.70
2018-08-25T11:50:22.779Z,16.50
2018-08-25T11:52:51.409Z,16.50
2018-08-25T11:55:19.871Z,16.50
2018-08-25T11:57:48.211Z,16.60
2018-08-25T12:00:16.813Z,16.50
2018-08-25T12:02:45.598Z,16.40
2018-08-25T12:05:14.022Z,16.40
2018-08-25T12:07:42.486Z,16.30
2018-08-25T12:10:10.895Z,16.30
2018-08-25T12:12:39.427Z,16.00
2018-08-25T12:15:08.197Z,16.10
2018-08-25T12:17:36.984Z,16.10
2018-08-25T12:20:05.816Z,16.30
2018-08-25T12:22:34.186Z,16.40
2018-08-25T12:25:02.962Z,16.30
2018-08-25T12:27:31.686Z,16.60
2018-08-25T12:30:00.183Z,16.70
2018-08-25T12:32:28.682Z,16.70
2018-08-25T12:34:57.144Z,16.70
2018-08-25T12:37:25.493Z,16.70
2018-08-25T12:39:53.921Z,16.70
2018-08-25T12:42:22.376Z,16.70
2018-08-25T12:44:50.698Z,16.50
2018-08-25T12:47:24.030Z,16.70
2018-08-25T12:49:53.283Z,16.90
2018-08-25T12:52:21.915Z,16.80
2018-08-25T12:54:50.453Z,16.90
2018-08-25T12:57:19.543Z,16.80
2018-08-25T12:59:47.982Z,16.70
2018-08-25T13:02:16.456Z,16.80
2018-08-25T13:04:44.845Z,16.90
2018-08-25T13:07:14.403Z,16.90
2018-08-25T13:09:43.682Z,17.00
2018-08-25T13:12:12.754Z,17.10
2018-08-25T13:14:41.458Z,17.00
2018-08-25T13:17:09.990Z,17.00
2018-08-25T13:19:38.516Z,16.90
2018-08-25T13:22:06.973Z,16.80
2018-08-25T13:24:35.299Z,16.90
2018-08-25T13:27:03.597Z,17.20
2018-08-25T13:29:31.886Z,17.20
2018-08-25T13:33:40.338Z,17.30
2018-08-25T13:36:08.627Z,17.30
2018-08-25T13:38:36.987Z,17.40
2018-08-25T13:41:05.405Z,17.40
2018-08-25T13:43:33.863Z,17.60
2018-08-25T13:46:02.267Z,17.60
2018-08-25T13:48:30.592Z,17.40
2018-08-25T13:50:58.887Z,17.40
2018-08-25T13:53:27.383Z,17.40
2018-08-25T13:55:56.291Z,17.60
2018-08-25T13:58:24.697Z,17.70
2018-08-25T14:00:53.399Z,17.80
2018-08-25T14:03:22.140Z,17.80
2018-08-25T14:05:50.941Z,17.80
2018-08-25T14:08:19.388Z,17.80
2018-08-25T14:10:47.574Z,17.80
2018-08-25T14:13:15.846Z,17.90
2018-08-25T14:15:44.188Z,17.90
2018-08-25T14:18:12.448Z,18.00
2018-08-25T14:20:41.182Z,18.20
2018-08-25T14:23:09.496Z,18.50
2018-08-25T14:25:37.766Z,18.60
2018-08-25T14:28:06.074Z,18.80
2018-08-25T14:30:34.395Z,19.00
2018-08-25T14:33:02.765Z,19.30
2018-08-25T14:35:31.026Z,19.50
2018-08-25T14:37:59.346Z,19.60
2018-08-25T14:40:27.682Z,19.70
2018-08-25T14:42:55.957Z,19.90
2018-08-25T14:45:24.220Z,19.80
2018-08-25T14:47:52.666Z,19.50
2018-08-25T14:50:20.967Z,19.20
2018-08-25T14:52:49.273Z,18.40
2018-08-25T14:55:17.536Z,18.30
2018-08-25T14:57:45.795Z,17.40
2018-08-25T15:00:14.240Z,16.90
2018-08-25T15:02:42.514Z,16.20
2018-08-25T15:05:10.970Z,15.80
2018-08-25T15:07:39.477Z,15.50
2018-08-25T15:10:07.827Z,15.10
2018-08-25T15:12:36.168Z,14.80
2018-08-25T15:15:04.492Z,14.70
2018-08-25T15:17:32.840Z,14.70
2018-08-25T15:20:01.134Z,14.60
2018-08-25T15:22:29.424Z,14.60
2018-08-25T15:24:57.809Z,14.70
2018-08-25T15:27:26.173Z,14.70
2018-08-25T15:29:54.400Z,14.60
2018-08-25T15:32:22.697Z,14.40
2018-08-25T15:34:51.186Z,14.30
2018-08-25T15:37:19.475Z,14.30
2018-08-25T15:39:47.758Z,14.20
2018-08-25T15:42:16.043Z,13.90
2018-08-25T15:44:44.345Z,13.80
2018-08-25T15:47:12.718Z,13.70
2018-08-25T15:49:41.004Z,13.80
2018-08-25T15:52:09.556Z,13.80
2018-08-25T15:54:37.931Z,13.90
2018-08-25T15:57:06.394Z,14.00
2018-08-25T15:59:34.905Z,14.10
2018-08-25T16:02:03.178Z,14.30
2018-08-25T16:04:31.466Z,14.40
2018-08-25T16:06:59.972Z,14.60
2018-08-25T16:09:30.219Z,14.70
2018-08-25T16:11:58.663Z,14.80
2018-08-25T16:14:27.393Z,14.70
2018-08-25T16:16:55.674Z,14.80
2018-08-25T16:19:23.983Z,15.00
2018-08-25T16:21:52.452Z,14.90
2018-08-25T16:24:20.722Z,15.10
2018-08-25T16:26:49.022Z,14.90
2018-08-25T16:29:17.282Z,15.00
2018-08-25T16:31:45.892Z,14.80
2018-08-25T16:34:14.810Z,14.90
2018-08-25T16:36:43.184Z,14.90
2018-08-25T16:39:11.447Z,15.00
2018-08-25T16:41:39.873Z,15.00
2018-08-25T16:44:08.165Z,15.10
2018-08-25T16:46:36.538Z,15.10
2018-08-25T16:49:04.851Z,15.00
2018-08-25T16:51:33.120Z,14.90
2018-08-25T16:54:01.378Z,15.00
2018-08-25T16:56:29.671Z,14.90
2018-08-25T16:58:57.961Z,14.90
2018-08-25T17:01:26.263Z,15.00
2018-08-25T17:03:54.934Z,15.00
2018-08-25T17:06:23.320Z,15.00
2018-08-25T17:08:51.634Z,15.00
2018-08-25T17:11:19.858Z,15.10
2018-08-25T17:13:48.126Z,15.20
2018-08-25T17:16:16.404Z,15.20
2018-08-25T17:18:44.824Z,15.20
2018-08-25T17:21:13.303Z,15.10
2018-08-25T17:23:41.479Z,15.00
2018-08-25T17:26:09.751Z,14.90
2018-08-25T17:28:38.027Z,14.90
2018-08-25T17:31:06.288Z,14.70
2018-08-25T17:33:34.607Z,14.60
2018-08-25T17:36:02.887Z,14.50
2018-08-25T17:38:31.192Z,14.30
2018-08-25T17:40:59.478Z,14.20
2018-08-25T17:43:27.747Z,14.10
2018-08-25T17:45:56.096Z,14.00
2018-08-25T17:48:24.379Z,13.90
2018-08-25T17:50:52.642Z,13.70
2018-08-25T17:53:21.671Z,13.70
2018-08-25T17:55:50.531Z,13.70
2018-08-25T17:58:18.819Z,13.50
2018-08-25T18:00:47.081Z,13.50
2018-08-25T18:03:15.355Z,13.40
2018-08-25T18:05:43.616Z,13.30
2018-08-25T18:08:12.422Z,13.20
2018-08-25T18:10:41.375Z,13.20
2018-08-25T18:13:09.640Z,13.10
2018-08-25T18:15:37.912Z,13.10
2018-08-25T18:18:06.446Z,13.10
2018-08-25T18:20:34.722Z,13.10
2018-08-25T18:23:02.990Z,13.10
2018-08-25T18:25:31.270Z,13.00
2018-08-25T18:27:59.561Z,12.90
2018-08-25T18:30:27.846Z,12.70
2018-08-25T18:32:56.241Z,12.50
2018-08-25T18:35:24.516Z,12.40
2018-08-25T18:37:52.788Z,12.30
2018-08-25T18:40:21.076Z,12.10
2018-08-25T18:42:49.335Z,11.90
2018-08-25T18:45:17.636Z,11.80
2018-08-25T18:47:45.916Z,12.00
2018-08-25T18:50:14.193Z,12.00
2018-08-25T18:52:42.671Z,11.80
2018-08-25T18:55:11.077Z,11.60
2018-08-25T18:57:39.302Z,11.50
2018-08-25T19:00:07.605Z,11.40
2018-08-25T19:02:35.895Z,11.40
2018-08-25T19:05:04.164Z,11.30
2018-08-25T19:07:32.426Z,11.20
2018-08-25T19:10:00.731Z,11.10
2018-08-25T19:12:29.391Z,11.00
2018-08-25T19:14:57.667Z,10.90
2018-08-25T19:17:25.950Z,10.80
2018-08-25T19:19:54.212Z,10.80
2018-08-25T19:22:22.485Z,10.80
2018-08-25T19:24:50.770Z,10.80
2018-08-25T19:27:19.108Z,10.80
2018-08-25T19:29:47.395Z,10.80
2018-08-25T19:32:15.659Z,10.70
2018-08-25T19:34:43.925Z,10.50
2018-08-25T19:37:12.211Z,10.50
2018-08-25T19:39:40.495Z,10.40
2018-08-25T19:42:08.765Z,10.40
2018-08-25T19:44:37.046Z,10.30
2018-08-25T19:47:05.385Z,10.20
2018-08-25T19:49:33.601Z,10.30
2018-08-25T19:52:01.929Z,10.30
2018-08-25T19:54:30.209Z,10.30
2018-08-25T19:56:58.513Z,10.20
2018-08-25T19:59:26.812Z,10.10
2018-08-25T20:01:55.090Z,10.20
2018-08-25T20:04:23.536Z,10.10
2018-08-25T20:06:51.798Z,10.20
2018-08-25T20:09:20.129Z,10.40
2018-08-25T20:11:48.434Z,10.50
2018-08-25T20:14:16.757Z,10.60
2018-08-25T20:16:45.095Z,10.60
2018-08-25T20:19:13.375Z,10.40
2018-08-25T20:21:41.655Z,10.50
2018-08-25T20:24:10.051Z,10.40
2018-08-25T20:26:38.330Z,10.40
2018-08-25T20:29:06.611Z,10.30
2018-08-25T20:31:34.894Z,10.30
2018-08-25T20:34:03.188Z,10.20
2018-08-25T20:36:31.446Z,10.20
2018-08-25T20:38:59.707Z,10.10
2018-08-25T20:41:28.106Z,10.10
2018-08-25T20:43:56.353Z,10.10
2018-08-25T20:46:24.622Z,10.10
2018-08-25T20:48:52.874Z,10.30
2018-08-25T20:51:21.287Z,10.30
2018-08-25T20:53:49.570Z,10.40
2018-08-25T20:56:17.836Z,10.40
2018-08-25T20:58:46.122Z,10.30
2018-08-25T21:01:14.377Z,10.20
2018-08-25T21:03:42.618Z,10.20
2018-08-25T21:06:10.866Z,10.10
2018-08-25T21:08:39.139Z,10.10
2018-08-25T21:11:07.410Z,10.10
2018-08-25T21:13:35.663Z,10.00
2018-08-25T21:16:03.921Z,9.90
2018-08-25T21:18:32.211Z,9.90
2018-08-25T21:21:00.459Z,9.90
2018-08-25T21:23:28.712Z,9.90
2018-08-25T21:25:56.993Z,9.90
2018-08-25T21:28:25.259Z,9.90
2018-08-25T21:30:53.584Z,9.80
2018-08-25T21:33:21.822Z,9.90
2018-08-25T21:35:50.140Z,9.80
2018-08-25T21:38:18.405Z,9.80
2018-08-25T21:40:46.671Z,9.70
2018-08-25T21:43:14.940Z,9.70
2018-08-25T21:45:43.196Z,9.60
2018-08-25T21:48:11.483Z,9.40
2018-08-25T21:50:39.739Z,9.40
2018-08-25T21:53:08.016Z,9.30
2018-08-25T21:55:36.263Z,9.30
2018-08-25T21:58:04.537Z,9.20
2018-08-25T22:00:32.795Z,9.10
2018-08-25T22:03:01.071Z,9.10
2018-08-25T22:05:29.334Z,9.10
2018-08-25T22:07:57.586Z,9.10
2018-08-25T22:10:25.853Z,9.10
2018-08-25T22:12:54.117Z,9.10
2018-08-25T22:15:22.384Z,9.20
2018-08-25T22:17:50.645Z,9.20
2018-08-25T22:20:18.895Z,9.20
2018-08-25T22:22:47.151Z,9.20
2018-08-25T22:25:15.413Z,9.20
2018-08-25T22:27:43.677Z,9.20
2018-08-25T22:30:11.954Z,9.20
2018-08-25T22:32:40.242Z,9.20
2018-08-25T22:35:08.547Z,9.10
2018-08-25T22:37:36.818Z,9.00
2018-08-25T22:40:05.089Z,9.00
2018-08-25T22:42:33.371Z,8.90
2018-08-25T22:45:01.648Z,8.90
2018-08-25T22:47:30.002Z,8.90
2018-08-25T22:49:58.307Z,8.90
2018-08-25T22:52:31.940Z,8.90
2018-08-25T22:55:00.234Z,8.90
2018-08-25T22:57:28.489Z,8.90
2018-08-25T22:59:56.749Z,8.90
2018-08-25T23:02:25.030Z,8.90
2018-08-25T23:04:53.287Z,8.90
2018-08-25T23:07:21.542Z,8.80
2018-08-25T23:09:49.816Z,8.80
2018-08-25T23:12:18.074Z,8.80
2018-08-25T23:14:46.323Z,8.80
2018-08-25T23:17:14.638Z,8.90
2018-08-25T23:19:42.868Z,8.90
2018-08-25T23:22:11.202Z,8.80
2018-08-25T23:24:39.458Z,8.70
2018-08-25T23:27:07.746Z,8.70
2018-08-25T23:29:35.991Z,8.70
2018-08-25T23:32:04.339Z,8.70
2018-08-25T23:34:33.354Z,8.60
2018-08-25T23:37:01.754Z,8.60
2018-08-25T23:39:30.131Z,8.60
2018-08-25T23:41:58.410Z,8.50
2018-08-25T23:44:26.658Z,8.50
2018-08-25T23:46:54.910Z,8.60
2018-08-25T23:49:23.176Z,8.60
2018-08-25T23:51:51.474Z,8.60
2018-08-25T23:54:19.928Z,8.60
2018-08-25T23:56:48.182Z,8.60
2018-08-25T23:59:16.433Z,8.70
